sensor_id;sensor_type;location;lat;lon;timestamp;temperature;humidity
32428;DHT22;18882;50.952;4.366;2023-03-21T00:01:00;11.70;99.90
32428;DHT22;18882;50.952;4.366;2023-03-21T00:03:29;11.70;99.90
32428;DHT22;18882;50.952;4.366;2023-03-21T00:05:55;11.70;99.90
32428;DHT22;18882;50.952;4.366;2023-03-21T00:08:23;11.80;99.90
32428;DHT22;18882;50.952;4.366;2023-03-21T00:11:00;11.80;99.90
32428;DHT22;18882;50.952;4.366;2023-03-21T00:13:27;11.80;99.90
32428;DHT22;18882;50.952;4.366;2023-03-21T00:16:04;11.80;99.90
32428;DHT22;18882;50.952;4.366;2023-03-21T00:18:30;11.90;99.90
32428;DHT22;18882;50.952;4.366;2023-03-21T00:20:59;11.90;99.90
32428;DHT22;18882;50.952;4.366;2023-03-21T00:23:26;11.70;99.90
32428;DHT22;18882;50.952;4.366;2023-03-21T00:25:53;11.50;99.90
32428;DHT22;18882;50.952;4.366;2023-03-21T00:28:19;11.50;99.90
32428;DHT22;18882;50.952;4.366;2023-03-21T00:30:46;11.60;99.90
32428;DHT22;18882;50.952;4.366;2023-03-21T00:33:12;11.60;99.90
32428;DHT22;18882;50.952;4.366;2023-03-21T00:35:39;11.70;99.90
32428;DHT22;18882;50.952;4.366;2023-03-21T00:38:08;11.70;99.90
32428;DHT22;18882;50.952;4.366;2023-03-21T00:40:34;11.60;99.90
32428;DHT22;18882;50.952;4.366;2023-03-21T00:43:00;11.60;99.90
32428;DHT22;18882;50.952;4.366;2023-03-21T00:45:26;11.50;99.90
32428;DHT22;18882;50.952;4.366;2023-03-21T00:47:52;11.40;99.90
32428;DHT22;18882;50.952;4.366;2023-03-21T00:50:17;11.40;99.90
32428;DHT22;18882;50.952;4.366;2023-03-21T00:52:43;11.50;99.90
32428;DHT22;18882;50.952;4.366;2023-03-21T00:55:19;11.50;99.90
32428;DHT22;18882;50.952;4.366;2023-03-21T00:57:45;11.40;99.90
32428;DHT22;18882;50.952;4.366;2023-03-21T01:00:13;11.30;99.90
32428;DHT22;18882;50.952;4.366;2023-03-21T01:02:39;11.40;99.90
32428;DHT22;18882;50.952;4.366;2023-03-21T01:05:22;11.40;99.90
32428;DHT22;18882;50.952;4.366;2023-03-21T01:08:08;11.40;99.90
32428;DHT22;18882;50.952;4.366;2023-03-21T01:10:40;11.50;99.90
32428;DHT22;18882;50.952;4.366;2023-03-21T01:13:07;11.50;99.90
32428;DHT22;18882;50.952;4.366;2023-03-21T01:15:33;11.50;99.90
32428;DHT22;18882;50.952;4.366;2023-03-21T01:18:00;11.60;99.90
32428;DHT22;18882;50.952;4.366;2023-03-21T01:20:26;11.60;99.90
32428;DHT22;18882;50.952;4.366;2023-03-21T01:22:53;11.60;99.90
32428;DHT22;18882;50.952;4.366;2023-03-21T01:25:19;11.60;99.90
32428;DHT22;18882;50.952;4.366;2023-03-21T01:27:45;11.50;99.90
32428;DHT22;18882;50.952;4.366;2023-03-21T01:30:11;11.50;99.90
32428;DHT22;18882;50.952;4.366;2023-03-21T01:32:37;11.50;99.90
32428;DHT22;18882;50.952;4.366;2023-03-21T01:35:03;11.60;99.90
32428;DHT22;18882;50.952;4.366;2023-03-21T01:37:28;11.50;99.90
32428;DHT22;18882;50.952;4.366;2023-03-21T01:39:55;11.60;99.90
32428;DHT22;18882;50.952;4.366;2023-03-21T01:42:20;11.60;99.90
32428;DHT22;18882;50.952;4.366;2023-03-21T01:44:54;11.60;99.90
32428;DHT22;18882;50.952;4.366;2023-03-21T01:47:21;11.60;99.90
32428;DHT22;18882;50.952;4.366;2023-03-21T01:49:50;11.60;99.90
32428;DHT22;18882;50.952;4.366;2023-03-21T01:52:20;11.70;99.90
32428;DHT22;18882;50.952;4.366;2023-03-21T01:54:49;11.60;99.90
32428;DHT22;18882;50.952;4.366;2023-03-21T01:57:23;11.70;99.90
32428;DHT22;18882;50.952;4.366;2023-03-21T01:59:57;11.70;99.90
32428;DHT22;18882;50.952;4.366;2023-03-21T02:02:27;11.70;99.90
32428;DHT22;18882;50.952;4.366;2023-03-21T02:04:56;11.50;99.90
32428;DHT22;18882;50.952;4.366;2023-03-21T02:07:32;11.60;99.90
32428;DHT22;18882;50.952;4.366;2023-03-21T02:10:04;11.60;99.90
32428;DHT22;18882;50.952;4.366;2023-03-21T02:12:31;11.70;99.90
32428;DHT22;18882;50.952;4.366;2023-03-21T02:14:57;11.60;99.90
32428;DHT22;18882;50.952;4.366;2023-03-21T02:17:42;11.60;99.90
32428;DHT22;18882;50.952;4.366;2023-03-21T02:31:27;11.60;99.90
32428;DHT22;18882;50.952;4.366;2023-03-21T02:34:11;11.60;99.90
32428;DHT22;18882;50.952;4.366;2023-03-21T02:37:00;11.60;99.90
32428;DHT22;18882;50.952;4.366;2023-03-21T02:39:37;11.60;99.90
32428;DHT22;18882;50.952;4.366;2023-03-21T02:42:21;11.60;99.90
32428;DHT22;18882;50.952;4.366;2023-03-21T02:47:42;11.60;99.90
32428;DHT22;18882;50.952;4.366;2023-03-21T02:50:20;11.60;99.90
32428;DHT22;18882;50.952;4.366;2023-03-21T02:52:50;11.60;99.90
32428;DHT22;18882;50.952;4.366;2023-03-21T02:55:23;11.60;99.90
32428;DHT22;18882;50.952;4.366;2023-03-21T02:57:52;11.70;99.90
32428;DHT22;18882;50.952;4.366;2023-03-21T03:00:27;11.70;99.90
32428;DHT22;18882;50.952;4.366;2023-03-21T03:02:54;11.60;99.90
32428;DHT22;18882;50.952;4.366;2023-03-21T03:05:23;11.80;99.90
32428;DHT22;18882;50.952;4.366;2023-03-21T03:08:03;11.70;99.90
32428;DHT22;18882;50.952;4.366;2023-03-21T03:18:54;11.80;99.90
32428;DHT22;18882;50.952;4.366;2023-03-21T03:24:11;11.90;99.90
32428;DHT22;18882;50.952;4.366;2023-03-21T03:26:47;11.90;99.90
32428;DHT22;18882;50.952;4.366;2023-03-21T03:29:17;11.90;99.90
32428;DHT22;18882;50.952;4.366;2023-03-21T03:34:40;11.90;99.90
32428;DHT22;18882;50.952;4.366;2023-03-21T03:37:12;11.90;99.90
32428;DHT22;18882;50.952;4.366;2023-03-21T03:42:24;11.90;99.90
32428;DHT22;18882;50.952;4.366;2023-03-21T03:44:56;12.00;99.90
32428;DHT22;18882;50.952;4.366;2023-03-21T03:47:36;12.00;99.90
32428;DHT22;18882;50.952;4.366;2023-03-21T03:50:13;12.00;99.90
32428;DHT22;18882;50.952;4.366;2023-03-21T03:52:49;11.90;99.90
32428;DHT22;18882;50.952;4.366;2023-03-21T03:55:16;11.90;99.90
32428;DHT22;18882;50.952;4.366;2023-03-21T03:57:43;11.90;99.90
32428;DHT22;18882;50.952;4.366;2023-03-21T04:00:11;11.90;99.90
32428;DHT22;18882;50.952;4.366;2023-03-21T04:02:43;11.90;99.90
32428;DHT22;18882;50.952;4.366;2023-03-21T04:05:09;11.90;99.90
32428;DHT22;18882;50.952;4.366;2023-03-21T04:07:35;11.90;99.90
32428;DHT22;18882;50.952;4.366;2023-03-21T04:10:01;11.90;99.90
32428;DHT22;18882;50.952;4.366;2023-03-21T04:12:26;12.00;99.90
32428;DHT22;18882;50.952;4.366;2023-03-21T04:14:52;12.00;99.90
32428;DHT22;18882;50.952;4.366;2023-03-21T04:17:18;12.00;99.90
32428;DHT22;18882;50.952;4.366;2023-03-21T04:19:43;12.00;99.90
32428;DHT22;18882;50.952;4.366;2023-03-21T04:22:10;12.00;99.90
32428;DHT22;18882;50.952;4.366;2023-03-21T04:24:37;12.10;99.90
32428;DHT22;18882;50.952;4.366;2023-03-21T04:27:04;12.20;99.90
32428;DHT22;18882;50.952;4.366;2023-03-21T04:29:33;12.10;99.90
32428;DHT22;18882;50.952;4.366;2023-03-21T04:31:58;12.10;99.90
32428;DHT22;18882;50.952;4.366;2023-03-21T04:34:32;12.10;99.90
32428;DHT22;18882;50.952;4.366;2023-03-21T04:36:57;12.20;99.90
32428;DHT22;18882;50.952;4.366;2023-03-21T04:39:23;12.10;99.90
32428;DHT22;18882;50.952;4.366;2023-03-21T04:41:49;12.20;99.90
32428;DHT22;18882;50.952;4.366;2023-03-21T04:44:17;12.10;99.90
32428;DHT22;18882;50.952;4.366;2023-03-21T04:46:43;12.30;99.90
32428;DHT22;18882;50.952;4.366;2023-03-21T04:49:09;12.40;99.90
32428;DHT22;18882;50.952;4.366;2023-03-21T04:51:36;12.30;99.90
32428;DHT22;18882;50.952;4.366;2023-03-21T04:54:02;12.30;99.90
32428;DHT22;18882;50.952;4.366;2023-03-21T04:56:28;12.30;99.90
32428;DHT22;18882;50.952;4.366;2023-03-21T04:59:00;12.30;99.90
32428;DHT22;18882;50.952;4.366;2023-03-21T05:01:26;12.30;99.90
32428;DHT22;18882;50.952;4.366;2023-03-21T05:03:58;12.40;99.90
32428;DHT22;18882;50.952;4.366;2023-03-21T05:06:25;12.40;99.90
32428;DHT22;18882;50.952;4.366;2023-03-21T05:08:53;12.40;99.90
32428;DHT22;18882;50.952;4.366;2023-03-21T05:11:21;12.40;99.90
32428;DHT22;18882;50.952;4.366;2023-03-21T05:13:46;12.40;99.90
32428;DHT22;18882;50.952;4.366;2023-03-21T05:16:12;12.30;99.90
32428;DHT22;18882;50.952;4.366;2023-03-21T05:18:38;12.30;99.90
32428;DHT22;18882;50.952;4.366;2023-03-21T05:21:04;12.30;99.90
32428;DHT22;18882;50.952;4.366;2023-03-21T05:23:32;12.20;99.90
32428;DHT22;18882;50.952;4.366;2023-03-21T05:26:05;12.20;99.90
32428;DHT22;18882;50.952;4.366;2023-03-21T05:28:31;12.10;99.90
32428;DHT22;18882;50.952;4.366;2023-03-21T05:31:01;12.10;99.90
32428;DHT22;18882;50.952;4.366;2023-03-21T05:33:27;12.20;99.90
32428;DHT22;18882;50.952;4.366;2023-03-21T05:35:52;12.10;99.90
32428;DHT22;18882;50.952;4.366;2023-03-21T05:38:18;12.10;99.90
32428;DHT22;18882;50.952;4.366;2023-03-21T05:40:49;12.10;99.90
32428;DHT22;18882;50.952;4.366;2023-03-21T05:43:15;12.20;99.90
32428;DHT22;18882;50.952;4.366;2023-03-21T05:45:41;12.20;99.90
32428;DHT22;18882;50.952;4.366;2023-03-21T05:48:07;12.20;99.90
32428;DHT22;18882;50.952;4.366;2023-03-21T05:50:33;12.30;99.90
32428;DHT22;18882;50.952;4.366;2023-03-21T05:52:59;12.40;99.90
32428;DHT22;18882;50.952;4.366;2023-03-21T05:55:25;12.30;99.90
32428;DHT22;18882;50.952;4.366;2023-03-21T05:57:50;12.30;99.90
32428;DHT22;18882;50.952;4.366;2023-03-21T06:00:17;12.10;99.90
32428;DHT22;18882;50.952;4.366;2023-03-21T06:02:43;12.10;99.90
32428;DHT22;18882;50.952;4.366;2023-03-21T06:05:12;12.10;99.90
32428;DHT22;18882;50.952;4.366;2023-03-21T06:07:41;12.10;99.90
32428;DHT22;18882;50.952;4.366;2023-03-21T06:10:07;12.10;99.90
32428;DHT22;18882;50.952;4.366;2023-03-21T06:12:33;12.00;99.90
32428;DHT22;18882;50.952;4.366;2023-03-21T06:14:59;11.90;99.90
32428;DHT22;18882;50.952;4.366;2023-03-21T06:17:25;11.80;99.90
32428;DHT22;18882;50.952;4.366;2023-03-21T06:19:51;11.70;99.90
32428;DHT22;18882;50.952;4.366;2023-03-21T06:22:16;11.80;99.90
32428;DHT22;18882;50.952;4.366;2023-03-21T06:24:45;11.70;99.90
32428;DHT22;18882;50.952;4.366;2023-03-21T06:27:11;11.60;99.90
32428;DHT22;18882;50.952;4.366;2023-03-21T06:29:36;11.50;99.90
32428;DHT22;18882;50.952;4.366;2023-03-21T06:32:03;11.60;99.90
32428;DHT22;18882;50.952;4.366;2023-03-21T06:34:28;11.70;99.90
32428;DHT22;18882;50.952;4.366;2023-03-21T06:36:55;11.80;99.90
32428;DHT22;18882;50.952;4.366;2023-03-21T06:39:20;11.70;99.90
32428;DHT22;18882;50.952;4.366;2023-03-21T06:41:46;11.60;99.90
32428;DHT22;18882;50.952;4.366;2023-03-21T06:44:12;11.50;99.90
32428;DHT22;18882;50.952;4.366;2023-03-21T06:46:37;11.40;99.90
32428;DHT22;18882;50.952;4.366;2023-03-21T06:49:03;11.40;99.90
32428;DHT22;18882;50.952;4.366;2023-03-21T06:51:29;11.40;99.90
32428;DHT22;18882;50.952;4.366;2023-03-21T06:53:55;11.40;99.90
32428;DHT22;18882;50.952;4.366;2023-03-21T06:56:22;11.40;99.90
32428;DHT22;18882;50.952;4.366;2023-03-21T06:58:47;11.50;99.90
32428;DHT22;18882;50.952;4.366;2023-03-21T07:01:14;11.50;99.90
32428;DHT22;18882;50.952;4.366;2023-03-21T07:03:43;11.40;99.90
32428;DHT22;18882;50.952;4.366;2023-03-21T07:06:10;11.40;99.90
32428;DHT22;18882;50.952;4.366;2023-03-21T07:08:39;11.40;99.90
32428;DHT22;18882;50.952;4.366;2023-03-21T07:11:05;11.60;99.90
32428;DHT22;18882;50.952;4.366;2023-03-21T07:13:31;11.60;99.90
32428;DHT22;18882;50.952;4.366;2023-03-21T07:15:57;11.70;99.90
32428;DHT22;18882;50.952;4.366;2023-03-21T07:18:23;11.70;99.90
32428;DHT22;18882;50.952;4.366;2023-03-21T07:20:50;11.80;99.90
32428;DHT22;18882;50.952;4.366;2023-03-21T07:23:21;11.90;99.90
32428;DHT22;18882;50.952;4.366;2023-03-21T07:25:48;11.80;99.90
32428;DHT22;18882;50.952;4.366;2023-03-21T07:28:15;11.80;99.90
32428;DHT22;18882;50.952;4.366;2023-03-21T07:30:43;11.90;99.90
32428;DHT22;18882;50.952;4.366;2023-03-21T07:33:09;12.00;99.90
32428;DHT22;18882;50.952;4.366;2023-03-21T07:35:37;12.00;99.90
32428;DHT22;18882;50.952;4.366;2023-03-21T07:38:04;12.20;99.90
32428;DHT22;18882;50.952;4.366;2023-03-21T07:40:30;12.20;99.90
32428;DHT22;18882;50.952;4.366;2023-03-21T07:42:56;12.30;99.90
32428;DHT22;18882;50.952;4.366;2023-03-21T07:45:22;12.30;99.90
32428;DHT22;18882;50.952;4.366;2023-03-21T07:47:50;12.30;99.90
32428;DHT22;18882;50.952;4.366;2023-03-21T07:50:16;12.40;99.90
32428;DHT22;18882;50.952;4.366;2023-03-21T07:52:42;12.30;99.90
32428;DHT22;18882;50.952;4.366;2023-03-21T07:55:08;12.30;99.90
32428;DHT22;18882;50.952;4.366;2023-03-21T07:57:34;12.10;99.90
32428;DHT22;18882;50.952;4.366;2023-03-21T08:00:00;12.00;99.90
32428;DHT22;18882;50.952;4.366;2023-03-21T08:02:25;12.00;99.90
32428;DHT22;18882;50.952;4.366;2023-03-21T08:04:51;12.10;99.90
32428;DHT22;18882;50.952;4.366;2023-03-21T08:07:17;12.10;99.90
32428;DHT22;18882;50.952;4.366;2023-03-21T08:09:43;12.10;99.90
32428;DHT22;18882;50.952;4.366;2023-03-21T08:12:09;12.20;99.90
32428;DHT22;18882;50.952;4.366;2023-03-21T08:14:35;12.10;99.90
32428;DHT22;18882;50.952;4.366;2023-03-21T08:17:04;12.10;99.90
32428;DHT22;18882;50.952;4.366;2023-03-21T08:19:31;12.10;99.90
32428;DHT22;18882;50.952;4.366;2023-03-21T08:21:56;12.10;99.90
32428;DHT22;18882;50.952;4.366;2023-03-21T08:24:26;12.10;99.90
32428;DHT22;18882;50.952;4.366;2023-03-21T08:26:52;12.20;99.90
32428;DHT22;18882;50.952;4.366;2023-03-21T08:29:18;12.40;99.90
32428;DHT22;18882;50.952;4.366;2023-03-21T08:31:44;12.40;99.90
32428;DHT22;18882;50.952;4.366;2023-03-21T08:34:10;12.40;99.90
32428;DHT22;18882;50.952;4.366;2023-03-21T08:36:38;12.50;99.90
32428;DHT22;18882;50.952;4.366;2023-03-21T08:39:04;12.70;99.90
32428;DHT22;18882;50.952;4.366;2023-03-21T08:41:31;12.70;99.90
32428;DHT22;18882;50.952;4.366;2023-03-21T08:43:57;12.70;99.90
32428;DHT22;18882;50.952;4.366;2023-03-21T08:46:23;12.80;99.90
32428;DHT22;18882;50.952;4.366;2023-03-21T08:48:48;13.00;99.90
32428;DHT22;18882;50.952;4.366;2023-03-21T08:51:14;13.00;99.90
32428;DHT22;18882;50.952;4.366;2023-03-21T08:53:39;13.00;99.90
32428;DHT22;18882;50.952;4.366;2023-03-21T08:56:06;13.10;99.90
32428;DHT22;18882;50.952;4.366;2023-03-21T08:58:32;13.10;99.90
32428;DHT22;18882;50.952;4.366;2023-03-21T09:00:58;13.10;99.90
32428;DHT22;18882;50.952;4.366;2023-03-21T09:03:23;13.30;99.90
32428;DHT22;18882;50.952;4.366;2023-03-21T09:05:55;13.30;99.90
32428;DHT22;18882;50.952;4.366;2023-03-21T09:08:22;13.50;99.90
32428;DHT22;18882;50.952;4.366;2023-03-21T09:10:51;13.60;99.90
32428;DHT22;18882;50.952;4.366;2023-03-21T09:13:17;13.60;99.90
32428;DHT22;18882;50.952;4.366;2023-03-21T09:15:43;13.60;99.90
32428;DHT22;18882;50.952;4.366;2023-03-21T09:18:10;13.70;99.90
32428;DHT22;18882;50.952;4.366;2023-03-21T09:20:41;13.60;99.90
32428;DHT22;18882;50.952;4.366;2023-03-21T09:23:08;13.50;99.90
32428;DHT22;18882;50.952;4.366;2023-03-21T09:25:35;13.40;99.90
32428;DHT22;18882;50.952;4.366;2023-03-21T09:28:01;13.30;99.90
32428;DHT22;18882;50.952;4.366;2023-03-21T09:30:30;13.40;99.90
32428;DHT22;18882;50.952;4.366;2023-03-21T09:32:57;13.50;99.90
32428;DHT22;18882;50.952;4.366;2023-03-21T09:35:23;13.50;99.90
32428;DHT22;18882;50.952;4.366;2023-03-21T09:37:52;13.50;99.90
32428;DHT22;18882;50.952;4.366;2023-03-21T09:40:22;13.60;99.90
32428;DHT22;18882;50.952;4.366;2023-03-21T09:45:31;13.60;99.90
32428;DHT22;18882;50.952;4.366;2023-03-21T09:47:59;13.80;99.90
32428;DHT22;18882;50.952;4.366;2023-03-21T09:50:32;13.90;99.90
32428;DHT22;18882;50.952;4.366;2023-03-21T09:53:12;14.00;99.90
32428;DHT22;18882;50.952;4.366;2023-03-21T09:55:41;14.00;99.90
32428;DHT22;18882;50.952;4.366;2023-03-21T09:58:21;13.90;99.90
32428;DHT22;18882;50.952;4.366;2023-03-21T10:00:52;14.00;99.90
32428;DHT22;18882;50.952;4.366;2023-03-21T10:03:24;13.90;99.90
32428;DHT22;18882;50.952;4.366;2023-03-21T10:05:55;13.90;99.90
32428;DHT22;18882;50.952;4.366;2023-03-21T10:08:32;13.90;99.90
32428;DHT22;18882;50.952;4.366;2023-03-21T10:14:01;13.90;99.90
32428;DHT22;18882;50.952;4.366;2023-03-21T10:16:32;13.70;99.90
32428;DHT22;18882;50.952;4.366;2023-03-21T10:18:59;13.70;99.90
32428;DHT22;18882;50.952;4.366;2023-03-21T10:21:27;13.80;99.90
32428;DHT22;18882;50.952;4.366;2023-03-21T10:23:55;14.00;99.90
32428;DHT22;18882;50.952;4.366;2023-03-21T10:26:23;14.00;99.90
32428;DHT22;18882;50.952;4.366;2023-03-21T10:28:51;14.00;99.90
32428;DHT22;18882;50.952;4.366;2023-03-21T10:31:20;14.00;99.90
32428;DHT22;18882;50.952;4.366;2023-03-21T10:33:49;14.00;99.90
32428;DHT22;18882;50.952;4.366;2023-03-21T10:36:20;14.10;99.90
32428;DHT22;18882;50.952;4.366;2023-03-21T10:38:49;14.10;99.90
32428;DHT22;18882;50.952;4.366;2023-03-21T10:41:17;14.10;99.90
32428;DHT22;18882;50.952;4.366;2023-03-21T10:43:44;14.40;99.90
32428;DHT22;18882;50.952;4.366;2023-03-21T10:46:18;14.60;99.90
32428;DHT22;18882;50.952;4.366;2023-03-21T10:48:50;14.60;99.90
32428;DHT22;18882;50.952;4.366;2023-03-21T10:51:29;14.80;99.90
32428;DHT22;18882;50.952;4.366;2023-03-21T10:53:58;14.90;99.90
32428;DHT22;18882;50.952;4.366;2023-03-21T10:56:30;14.90;99.90
32428;DHT22;18882;50.952;4.366;2023-03-21T10:58:58;15.00;99.90
32428;DHT22;18882;50.952;4.366;2023-03-21T11:01:35;15.00;99.90
32428;DHT22;18882;50.952;4.366;2023-03-21T11:04:34;14.90;99.90
32428;DHT22;18882;50.952;4.366;2023-03-21T11:07:04;14.90;99.90
32428;DHT22;18882;50.952;4.366;2023-03-21T11:09:57;15.00;99.90
32428;DHT22;18882;50.952;4.366;2023-03-21T11:12:36;15.00;99.90
32428;DHT22;18882;50.952;4.366;2023-03-21T11:17:48;14.90;99.90
32428;DHT22;18882;50.952;4.366;2023-03-21T11:20:17;14.70;99.90
32428;DHT22;18882;50.952;4.366;2023-03-21T11:22:44;14.70;99.90
32428;DHT22;18882;50.952;4.366;2023-03-21T11:27:55;14.70;99.90
32428;DHT22;18882;50.952;4.366;2023-03-21T11:30:24;14.70;99.90
32428;DHT22;18882;50.952;4.366;2023-03-21T11:32:54;14.70;99.90
32428;DHT22;18882;50.952;4.366;2023-03-21T11:35:35;14.90;99.90
32428;DHT22;18882;50.952;4.366;2023-03-21T11:38:01;15.00;99.90
32428;DHT22;18882;50.952;4.366;2023-03-21T11:40:32;14.80;99.90
32428;DHT22;18882;50.952;4.366;2023-03-21T11:43:00;14.60;99.90
32428;DHT22;18882;50.952;4.366;2023-03-21T11:45:32;14.60;99.90
32428;DHT22;18882;50.952;4.366;2023-03-21T11:47:59;14.80;99.90
32428;DHT22;18882;50.952;4.366;2023-03-21T11:50:33;15.10;99.90
32428;DHT22;18882;50.952;4.366;2023-03-21T12:04:41;15.20;99.90
32428;DHT22;18882;50.952;4.366;2023-03-21T12:10:31;15.50;99.90
32428;DHT22;18882;50.952;4.366;2023-03-21T12:15:49;15.20;99.90
32428;DHT22;18882;50.952;4.366;2023-03-21T12:24:24;15.30;99.90
32428;DHT22;18882;50.952;4.366;2023-03-21T12:27:05;15.20;99.90
32428;DHT22;18882;50.952;4.366;2023-03-21T12:35:19;15.50;99.90
32428;DHT22;18882;50.952;4.366;2023-03-21T12:38:14;15.30;99.90
32428;DHT22;18882;50.952;4.366;2023-03-21T12:40:57;15.50;99.90
32428;DHT22;18882;50.952;4.366;2023-03-21T12:46:35;15.60;99.90
32428;DHT22;18882;50.952;4.366;2023-03-21T12:49:08;15.50;99.90
32428;DHT22;18882;50.952;4.366;2023-03-21T12:51:47;15.60;99.90
32428;DHT22;18882;50.952;4.366;2023-03-21T12:56:48;15.60;99.90
32428;DHT22;18882;50.952;4.366;2023-03-21T12:59:30;15.70;99.90
32428;DHT22;18882;50.952;4.366;2023-03-21T13:07:54;15.60;99.90
32428;DHT22;18882;50.952;4.366;2023-03-21T13:10:21;15.70;99.90
32428;DHT22;18882;50.952;4.366;2023-03-21T13:18:14;16.00;99.90
32428;DHT22;18882;50.952;4.366;2023-03-21T13:20:59;16.00;99.90
32428;DHT22;18882;50.952;4.366;2023-03-21T13:23:36;16.10;99.90
32428;DHT22;18882;50.952;4.366;2023-03-21T13:26:02;16.10;99.90
32428;DHT22;18882;50.952;4.366;2023-03-21T13:28:38;16.20;99.90
32428;DHT22;18882;50.952;4.366;2023-03-21T13:31:21;16.20;99.90
32428;DHT22;18882;50.952;4.366;2023-03-21T13:33:51;16.20;99.90
32428;DHT22;18882;50.952;4.366;2023-03-21T13:36:25;16.40;99.90
32428;DHT22;18882;50.952;4.366;2023-03-21T13:38:57;16.40;99.90
32428;DHT22;18882;50.952;4.366;2023-03-21T13:41:42;16.50;99.90
32428;DHT22;18882;50.952;4.366;2023-03-21T13:44:24;16.30;99.90
32428;DHT22;18882;50.952;4.366;2023-03-21T13:49:34;15.90;99.90
32428;DHT22;18882;50.952;4.366;2023-03-21T13:57:05;15.80;99.90
32428;DHT22;18882;50.952;4.366;2023-03-21T13:59:35;15.80;99.90
32428;DHT22;18882;50.952;4.366;2023-03-21T14:04:37;15.60;99.90
32428;DHT22;18882;50.952;4.366;2023-03-21T14:07:14;15.50;99.90
32428;DHT22;18882;50.952;4.366;2023-03-21T14:09:47;15.60;99.90
32428;DHT22;18882;50.952;4.366;2023-03-21T14:12:16;15.50;99.90
32428;DHT22;18882;50.952;4.366;2023-03-21T14:14:46;15.40;99.90
32428;DHT22;18882;50.952;4.366;2023-03-21T14:17:21;15.20;99.90
32428;DHT22;18882;50.952;4.366;2023-03-21T14:19:54;14.90;99.90
32428;DHT22;18882;50.952;4.366;2023-03-21T14:22:20;14.80;99.90
32428;DHT22;18882;50.952;4.366;2023-03-21T14:24:47;14.90;99.90
32428;DHT22;18882;50.952;4.366;2023-03-21T14:27:13;14.80;99.90
32428;DHT22;18882;50.952;4.366;2023-03-21T14:29:39;14.90;99.90
32428;DHT22;18882;50.952;4.366;2023-03-21T14:32:13;15.10;99.90
32428;DHT22;18882;50.952;4.366;2023-03-21T14:34:43;15.10;99.90
32428;DHT22;18882;50.952;4.366;2023-03-21T14:37:10;15.20;99.90
32428;DHT22;18882;50.952;4.366;2023-03-21T14:39:36;15.10;99.90
32428;DHT22;18882;50.952;4.366;2023-03-21T14:42:10;15.10;99.90
32428;DHT22;18882;50.952;4.366;2023-03-21T14:44:37;15.10;99.90
32428;DHT22;18882;50.952;4.366;2023-03-21T14:47:06;14.90;99.90
32428;DHT22;18882;50.952;4.366;2023-03-21T14:49:34;14.70;99.90
32428;DHT22;18882;50.952;4.366;2023-03-21T14:52:08;14.60;99.90
32428;DHT22;18882;50.952;4.366;2023-03-21T14:54:35;14.40;99.90
32428;DHT22;18882;50.952;4.366;2023-03-21T14:57:06;14.40;99.90
32428;DHT22;18882;50.952;4.366;2023-03-21T14:59:36;14.40;99.90
32428;DHT22;18882;50.952;4.366;2023-03-21T15:02:10;14.30;99.90
32428;DHT22;18882;50.952;4.366;2023-03-21T15:04:39;14.30;99.90
32428;DHT22;18882;50.952;4.366;2023-03-21T15:07:05;14.20;99.90
32428;DHT22;18882;50.952;4.366;2023-03-21T15:09:33;14.30;99.90
32428;DHT22;18882;50.952;4.366;2023-03-21T15:12:00;14.20;99.90
32428;DHT22;18882;50.952;4.366;2023-03-21T15:14:31;14.40;99.90
32428;DHT22;18882;50.952;4.366;2023-03-21T15:16:59;14.40;99.90
32428;DHT22;18882;50.952;4.366;2023-03-21T15:19:30;14.50;99.90
32428;DHT22;18882;50.952;4.366;2023-03-21T15:22:14;14.50;99.90
32428;DHT22;18882;50.952;4.366;2023-03-21T15:24:43;14.50;99.90
32428;DHT22;18882;50.952;4.366;2023-03-21T15:27:18;14.40;99.90
32428;DHT22;18882;50.952;4.366;2023-03-21T15:29:44;14.30;99.90
32428;DHT22;18882;50.952;4.366;2023-03-21T15:32:17;14.40;99.90
32428;DHT22;18882;50.952;4.366;2023-03-21T15:34:44;14.40;99.90
32428;DHT22;18882;50.952;4.366;2023-03-21T15:37:16;14.00;99.90
32428;DHT22;18882;50.952;4.366;2023-03-21T15:39:43;14.00;99.90
32428;DHT22;18882;50.952;4.366;2023-03-21T15:42:32;14.00;99.90
32428;DHT22;18882;50.952;4.366;2023-03-21T15:45:01;14.00;99.90
32428;DHT22;18882;50.952;4.366;2023-03-21T15:50:28;13.80;99.90
32428;DHT22;18882;50.952;4.366;2023-03-21T15:52:59;13.80;99.90
32428;DHT22;18882;50.952;4.366;2023-03-21T15:55:43;13.80;99.90
32428;DHT22;18882;50.952;4.366;2023-03-21T15:58:16;13.90;99.90
32428;DHT22;18882;50.952;4.366;2023-03-21T16:00:48;13.90;99.90
32428;DHT22;18882;50.952;4.366;2023-03-21T16:03:20;14.00;99.90
32428;DHT22;18882;50.952;4.366;2023-03-21T16:13:40;14.00;99.90
32428;DHT22;18882;50.952;4.366;2023-03-21T16:16:08;13.90;99.90
32428;DHT22;18882;50.952;4.366;2023-03-21T16:18:34;13.90;99.90
32428;DHT22;18882;50.952;4.366;2023-03-21T16:20:59;13.90;99.90
32428;DHT22;18882;50.952;4.366;2023-03-21T16:23:25;14.00;99.90
32428;DHT22;18882;50.952;4.366;2023-03-21T16:25:51;14.20;99.90
32428;DHT22;18882;50.952;4.366;2023-03-21T16:28:22;14.30;99.90
32428;DHT22;18882;50.952;4.366;2023-03-21T16:30:48;14.50;99.90
32428;DHT22;18882;50.952;4.366;2023-03-21T16:33:13;14.50;99.90
32428;DHT22;18882;50.952;4.366;2023-03-21T16:35:39;14.40;99.90
32428;DHT22;18882;50.952;4.366;2023-03-21T16:38:05;14.30;99.90
32428;DHT22;18882;50.952;4.366;2023-03-21T16:40:37;14.30;99.90
32428;DHT22;18882;50.952;4.366;2023-03-21T16:43:03;14.30;99.90
32428;DHT22;18882;50.952;4.366;2023-03-21T16:45:29;14.30;99.90
32428;DHT22;18882;50.952;4.366;2023-03-21T16:47:55;14.20;99.90
32428;DHT22;18882;50.952;4.366;2023-03-21T16:50:26;14.20;99.90
32428;DHT22;18882;50.952;4.366;2023-03-21T16:52:53;14.00;99.90
32428;DHT22;18882;50.952;4.366;2023-03-21T16:55:19;14.00;99.90
32428;DHT22;18882;50.952;4.366;2023-03-21T16:57:46;13.90;99.90
32428;DHT22;18882;50.952;4.366;2023-03-21T17:00:16;13.90;99.90
32428;DHT22;18882;50.952;4.366;2023-03-21T17:02:45;13.90;99.90
32428;DHT22;18882;50.952;4.366;2023-03-21T17:05:12;14.00;99.90
32428;DHT22;18882;50.952;4.366;2023-03-21T17:07:38;14.00;99.90
32428;DHT22;18882;50.952;4.366;2023-03-21T17:10:05;13.90;99.90
32428;DHT22;18882;50.952;4.366;2023-03-21T17:12:36;13.90;99.90
32428;DHT22;18882;50.952;4.366;2023-03-21T17:15:02;13.90;99.90
32428;DHT22;18882;50.952;4.366;2023-03-21T17:17:28;13.90;99.90
32428;DHT22;18882;50.952;4.366;2023-03-21T17:19:53;14.00;99.90
32428;DHT22;18882;50.952;4.366;2023-03-21T17:22:19;14.00;99.90
32428;DHT22;18882;50.952;4.366;2023-03-21T17:24:45;14.00;99.90
32428;DHT22;18882;50.952;4.366;2023-03-21T17:27:13;14.00;99.90
32428;DHT22;18882;50.952;4.366;2023-03-21T17:29:39;14.10;99.90
32428;DHT22;18882;50.952;4.366;2023-03-21T17:32:05;14.00;99.90